createdAt,value
2023-04-20T00:01:09.406Z,94.06
2023-04-20T00:03:38.077Z,94.08
2023-04-20T00:06:05.809Z,94.01
2023-04-20T00:08:32.829Z,94.74
2023-04-20T00:10:59.616Z,93.78
2023-04-20T00:13:27.013Z,94.93
2023-04-20T00:15:53.914Z,94.01
2023-04-20T00:18:21.065Z,93.26
2023-04-20T00:20:47.942Z,94.81
2023-04-20T00:23:14.759Z,95.41
2023-04-20T00:25:41.587Z,95.51
2023-04-20T00:28:08.408Z,95.56
2023-04-20T00:30:35.230Z,95.77
2023-04-20T00:33:02.661Z,94.99
2023-04-20T00:35:29.535Z,93.94
2023-04-20T00:37:56.355Z,94.00
2023-04-20T00:40:23.272Z,94.90
2023-04-20T00:42:50.091Z,94.52
2023-04-20T00:45:16.950Z,93.41
2023-04-20T00:47:43.788Z,94.62
2023-04-20T00:50:11.452Z,94.15
2023-04-20T00:52:38.426Z,94.88
2023-04-20T00:55:06.734Z,95.18
2023-04-20T00:57:33.691Z,95.14
2023-04-20T01:00:01.435Z,95.20
2023-04-20T01:02:28.574Z,95.35
2023-04-20T01:04:56.327Z,95.54
2023-04-20T01:07:23.167Z,95.60
2023-04-20T01:09:50.684Z,96.33
2023-04-20T01:12:17.530Z,96.82
2023-04-20T01:14:44.348Z,98.05
2023-04-20T01:17:11.150Z,97.38
2023-04-20T01:19:37.974Z,95.14
2023-04-20T01:22:04.774Z,95.01
2023-04-20T01:24:31.580Z,94.64
2023-04-20T01:26:58.528Z,94.75
2023-04-20T01:29:25.420Z,94.24
2023-04-20T01:31:52.334Z,95.28
2023-04-20T01:34:19.327Z,96.43
2023-04-20T01:36:46.260Z,96.92
2023-04-20T01:39:13.223Z,96.69
2023-04-20T01:41:40.550Z,96.43
2023-04-20T01:44:07.383Z,96.67
2023-04-20T01:46:39.297Z,96.33
2023-04-20T01:49:07.014Z,95.85
2023-04-20T01:51:35.355Z,95.83
2023-04-20T01:54:02.722Z,95.88
2023-04-20T01:56:29.758Z,96.08
2023-04-20T01:58:56.578Z,96.35
2023-04-20T02:01:23.506Z,96.84
2023-04-20T02:03:50.685Z,97.37
2023-04-20T02:06:17.797Z,97.88
2023-04-20T02:08:44.662Z,97.60
2023-04-20T02:11:11.520Z,96.04
2023-04-20T02:13:38.450Z,95.87
2023-04-20T02:16:06.246Z,96.61
2023-04-20T02:18:33.123Z,96.02
2023-04-20T02:21:01.196Z,95.38
2023-04-20T02:23:28.028Z,95.50
2023-04-20T02:25:54.920Z,94.97
2023-04-20T02:28:21.758Z,94.59
2023-04-20T02:30:48.601Z,95.20
2023-04-20T02:33:15.427Z,95.61
2023-04-20T02:35:42.207Z,95.66
2023-04-20T02:38:09.145Z,95.91
2023-04-20T02:40:35.977Z,96.89
2023-04-20T02:43:02.794Z,96.87
2023-04-20T02:45:30.771Z,97.15
2023-04-20T02:47:57.710Z,97.73
2023-04-20T02:50:24.632Z,97.57
2023-04-20T02:52:51.436Z,98.78
2023-04-20T02:55:18.441Z,98.55
2023-04-20T02:57:45.271Z,99.39
2023-04-20T03:00:13.683Z,99.79
2023-04-20T03:02:40.704Z,100.00
2023-04-20T03:05:08.139Z,100.00
2023-04-20T03:07:34.941Z,100.00
2023-04-20T03:10:01.809Z,100.00
2023-04-20T03:12:28.597Z,100.00
2023-04-20T03:14:55.458Z,100.00
2023-04-20T03:17:22.321Z,99.75
2023-04-20T03:19:49.482Z,100.00
2023-04-20T03:22:19.212Z,100.00
2023-04-20T03:24:47.662Z,99.54
2023-04-20T03:27:14.521Z,100.00
2023-04-20T03:29:41.337Z,100.00
2023-04-20T03:32:08.166Z,100.00
2023-04-20T03:34:35.000Z,100.00
2023-04-20T03:37:01.890Z,99.12
2023-04-20T03:39:28.791Z,100.00
2023-04-20T03:41:55.610Z,100.00
2023-04-20T03:44:22.428Z,100.00
2023-04-20T03:46:49.277Z,100.00
2023-04-20T03:49:16.494Z,100.00
2023-04-20T03:51:43.434Z,100.00
2023-04-20T03:54:11.054Z,100.00
2023-04-20T03:56:37.898Z,100.00
2023-04-20T03:59:04.694Z,99.87
2023-04-20T04:01:31.873Z,100.00
2023-04-20T04:03:58.967Z,99.75
2023-04-20T04:06:27.338Z,99.22
2023-04-20T04:08:54.184Z,98.25
2023-04-20T04:11:21.130Z,97.88
2023-04-20T04:13:48.041Z,97.57
2023-04-20T04:16:14.840Z,98.18
2023-04-20T04:18:44.990Z,96.97
2023-04-20T04:21:11.791Z,98.23
2023-04-20T04:23:38.672Z,98.25
2023-04-20T04:26:05.817Z,98.18
2023-04-20T04:28:32.655Z,98.31
2023-04-20T04:31:01.572Z,98.44
2023-04-20T04:33:28.689Z,97.44
2023-04-20T04:35:55.561Z,97.27
2023-04-20T04:38:22.674Z,97.73
2023-04-20T04:40:50.016Z,98.34
2023-04-20T04:43:16.835Z,98.25
2023-04-20T04:45:43.632Z,97.25
2023-04-20T04:48:12.280Z,97.60
2023-04-20T04:50:39.808Z,97.30
2023-04-20T04:53:06.963Z,98.50
2023-04-20T04:55:34.562Z,98.92
2023-04-20T04:58:01.712Z,100.00
2023-04-20T05:00:29.362Z,100.00
2023-04-20T05:02:56.719Z,99.55
2023-04-20T05:05:25.360Z,99.67
2023-04-20T05:07:52.182Z,100.00
2023-04-20T05:10:19.168Z,100.00
2023-04-20T05:12:47.423Z,100.00
2023-04-20T05:15:14.334Z,100.00
2023-04-20T05:17:41.266Z,100.00
2023-04-20T05:20:10.580Z,100.00
2023-04-20T05:22:37.842Z,100.00
2023-04-20T05:25:06.619Z,100.00
2023-04-20T05:27:34.294Z,100.00
2023-04-20T05:30:16.529Z,100.00
2023-04-20T05:32:47.820Z,100.00
2023-04-20T05:35:17.159Z,100.00
2023-04-20T05:37:44.044Z,100.00
2023-04-20T05:40:11.749Z,100.00
2023-04-20T05:42:38.638Z,100.00
2023-04-20T05:45:06.386Z,100.00
2023-04-20T05:47:33.412Z,100.00
2023-04-20T05:50:00.547Z,100.00
2023-04-20T05:52:27.382Z,100.00
2023-04-20T05:54:54.201Z,100.00
2023-04-20T05:57:21.860Z,100.00
2023-04-20T05:59:48.740Z,100.00
2023-04-20T06:02:15.836Z,100.00
2023-04-20T06:04:43.290Z,100.00
2023-04-20T06:07:10.328Z,100.00
2023-04-20T06:09:37.184Z,100.00
2023-04-20T06:12:04.258Z,100.00
2023-04-20T06:14:31.189Z,100.00
2023-04-20T06:16:58.009Z,100.00
2023-04-20T06:19:24.834Z,100.00
2023-04-20T06:21:51.681Z,100.00
2023-04-20T06:24:18.506Z,100.00
2023-04-20T06:26:45.532Z,100.00
2023-04-20T06:29:12.360Z,100.00
2023-04-20T06:31:39.204Z,100.00
2023-04-20T06:34:06.171Z,100.00
2023-04-20T06:36:33.002Z,100.00
2023-04-20T06:38:59.828Z,100.00
2023-04-20T06:41:26.777Z,100.00
2023-04-20T06:43:53.814Z,100.00
2023-04-20T06:46:20.798Z,100.00
2023-04-20T06:48:47.646Z,100.00
2023-04-20T06:51:14.548Z,100.00
2023-04-20T06:53:41.392Z,100.00
2023-04-20T06:56:08.448Z,100.00
2023-04-20T06:58:35.357Z,100.00
2023-04-20T07:01:02.753Z,100.00
2023-04-20T07:03:29.801Z,100.00
2023-04-20T07:05:56.738Z,100.00
2023-04-20T07:08:23.560Z,99.92
2023-04-20T07:10:50.414Z,99.31
2023-04-20T07:13:17.294Z,99.42
2023-04-20T07:15:45.858Z,99.34
2023-04-20T07:18:12.857Z,98.88
2023-04-20T07:20:39.746Z,99.66
2023-04-20T07:23:06.579Z,99.17
2023-04-20T07:25:33.408Z,99.34
2023-04-20T07:28:00.382Z,99.40
2023-04-20T07:30:27.400Z,100.00
2023-04-20T07:32:54.286Z,100.00
2023-04-20T07:35:21.396Z,99.54
2023-04-20T07:37:48.198Z,99.36
2023-04-20T07:40:16.840Z,99.32
2023-04-20T07:42:43.664Z,98.91
2023-04-20T07:45:12.488Z,99.29
2023-04-20T07:47:39.693Z,99.10
2023-04-20T07:50:07.802Z,98.75
2023-04-20T07:52:35.703Z,98.29
2023-04-20T07:55:02.705Z,98.51
2023-04-20T07:57:29.728Z,98.15
2023-04-20T07:59:56.577Z,97.97
2023-04-20T08:02:23.679Z,98.20
2023-04-20T08:04:50.960Z,98.36
2023-04-20T08:07:18.081Z,98.43
2023-04-20T08:09:45.855Z,97.76
2023-04-20T08:12:13.122Z,96.65
2023-04-20T08:14:41.179Z,96.81
2023-04-20T08:17:08.521Z,96.45
2023-04-20T08:19:35.357Z,97.11
2023-04-20T08:22:02.928Z,98.11
2023-04-20T08:24:30.340Z,98.00
2023-04-20T08:26:59.283Z,98.36
2023-04-20T08:29:26.469Z,98.13
2023-04-20T08:31:53.439Z,98.01
2023-04-20T08:34:20.467Z,99.84
2023-04-20T08:36:47.456Z,99.10
2023-04-20T08:39:24.015Z,99.25
2023-04-20T08:41:55.423Z,99.42
2023-04-20T08:44:23.244Z,100.00
2023-04-20T08:46:51.274Z,100.00
2023-04-20T08:49:19.810Z,100.00
2023-04-20T08:51:48.189Z,100.00
2023-04-20T08:54:15.975Z,100.00
2023-04-20T08:56:48.010Z,100.00
2023-04-20T08:59:16.821Z,100.00
2023-04-20T09:01:44.721Z,100.00
2023-04-20T09:04:29.575Z,100.00
2023-04-20T09:06:56.834Z,100.00
2023-04-20T09:09:27.772Z,100.00
2023-04-20T09:12:06.722Z,100.00
2023-04-20T09:14:47.754Z,100.00
2023-04-20T09:17:16.090Z,100.00
2023-04-20T09:19:52.103Z,100.00
2023-04-20T09:22:31.339Z,100.00
2023-04-20T09:24:58.344Z,100.00
2023-04-20T09:27:26.314Z,99.83
2023-04-20T09:30:01.111Z,99.99
2023-04-20T09:32:29.259Z,99.59
2023-04-20T09:34:57.144Z,99.30
2023-04-20T09:37:24.275Z,98.94
2023-04-20T09:39:51.229Z,99.76
2023-04-20T09:42:18.701Z,99.17
2023-04-20T09:44:45.630Z,98.70
2023-04-20T09:47:16.962Z,99.16
2023-04-20T09:49:49.800Z,99.10
2023-04-20T09:52:18.729Z,98.71
2023-04-20T09:54:46.290Z,98.18
2023-04-20T09:57:14.446Z,98.80
2023-04-20T09:59:46.783Z,98.83
2023-04-20T10:02:14.360Z,99.93
2023-04-20T10:04:58.080Z,100.00
2023-04-20T10:07:31.679Z,100.00
2023-04-20T10:10:08.714Z,100.00
2023-04-20T10:12:52.335Z,100.00
2023-04-20T10:15:21.597Z,100.00
2023-04-20T10:17:49.156Z,100.00
2023-04-20T10:20:21.995Z,100.00
2023-04-20T10:22:51.275Z,100.00
2023-04-20T10:25:26.914Z,100.00
2023-04-20T10:28:08.401Z,100.00
2023-04-20T10:30:36.882Z,100.00
2023-04-20T10:33:12.843Z,100.00
2023-04-20T10:35:59.005Z,100.00
2023-04-20T10:38:30.297Z,100.00
2023-04-20T10:40:57.948Z,100.00
2023-04-20T10:43:24.780Z,100.00
2023-04-20T10:45:52.374Z,100.00
2023-04-20T10:48:19.381Z,100.00
2023-04-20T10:50:46.248Z,100.00
2023-04-20T10:53:23.875Z,100.00
2023-04-20T10:56:01.207Z,100.00
2023-04-20T10:58:28.236Z,100.00
2023-04-20T11:01:00.392Z,100.00
2023-04-20T11:03:32.094Z,100.00
2023-04-20T11:06:02.515Z,100.00
2023-04-20T11:08:43.565Z,100.00
2023-04-20T11:11:25.480Z,100.00
2023-04-20T11:13:52.292Z,100.00
2023-04-20T11:16:19.730Z,100.00
2023-04-20T11:18:56.447Z,100.00
2023-04-20T11:21:23.358Z,100.00
2023-04-20T11:23:50.608Z,100.00
2023-04-20T11:26:17.456Z,100.00
2023-04-20T11:28:56.305Z,100.00
2023-04-20T11:31:23.669Z,100.00
2023-04-20T11:33:50.784Z,100.00
2023-04-20T11:36:22.744Z,100.00
2023-04-20T11:38:49.799Z,100.00
2023-04-20T11:41:17.519Z,100.00
2023-04-20T11:43:45.985Z,100.00
2023-04-20T11:46:18.519Z,100.00
2023-04-20T11:48:47.421Z,100.00
2023-04-20T11:51:15.018Z,100.00
2023-04-20T11:53:41.992Z,100.00
2023-04-20T11:56:09.064Z,100.00
2023-04-20T11:58:36.553Z,100.00
2023-04-20T12:01:05.297Z,100.00
2023-04-20T12:03:32.501Z,100.00
2023-04-20T12:05:59.600Z,100.00
2023-04-20T12:08:26.479Z,100.00
2023-04-20T12:10:53.268Z,100.00
2023-04-20T12:13:20.145Z,100.00
2023-04-20T12:15:47.108Z,100.00
2023-04-20T12:18:13.960Z,100.00
2023-04-20T12:20:40.815Z,100.00
2023-04-20T12:23:07.694Z,100.00
2023-04-20T12:25:34.538Z,100.00
2023-04-20T12:28:06.681Z,100.00
2023-04-20T12:30:35.296Z,100.00
2023-04-20T12:33:03.869Z,100.00
2023-04-20T12:35:30.892Z,100.00
2023-04-20T12:37:57.756Z,100.00
2023-04-20T12:40:24.796Z,100.00
2023-04-20T12:42:51.646Z,100.00
2023-04-20T12:45:18.537Z,100.00
2023-04-20T12:47:45.376Z,100.00
2023-04-20T12:50:12.225Z,100.00
2023-04-20T12:52:39.726Z,100.00
2023-04-20T12:55:08.019Z,100.00
2023-04-20T12:57:34.848Z,100.00
2023-04-20T13:00:05.843Z,100.00
2023-04-20T13:02:36.146Z,100.00
2023-04-20T13:05:04.557Z,100.00
2023-04-20T13:07:31.893Z,100.00
2023-04-20T13:09:59.807Z,100.00
2023-04-20T13:12:26.988Z,100.00
2023-04-20T13:14:53.853Z,100.00
2023-04-20T13:17:20.695Z,100.00
2023-04-20T13:19:49.372Z,100.00
2023-04-20T13:22:18.792Z,100.00
2023-04-20T13:24:46.425Z,100.00
2023-04-20T13:27:14.296Z,100.00
2023-04-20T13:29:41.432Z,100.00
2023-04-20T13:32:08.412Z,100.00
2023-04-20T13:34:35.307Z,100.00
2023-04-20T13:37:03.449Z,100.00
2023-04-20T13:39:30.455Z,100.00
2023-04-20T13:41:57.316Z,100.00
2023-04-20T13:44:24.125Z,100.00
2023-04-20T13:46:50.951Z,100.00
2023-04-20T13:49:17.853Z,100.00
2023-04-20T13:51:44.793Z,100.00
2023-04-20T13:54:11.626Z,100.00
2023-04-20T13:56:38.491Z,100.00
2023-04-20T13:59:05.359Z,100.00
2023-04-20T14:01:32.293Z,100.00
2023-04-20T14:03:59.529Z,100.00
2023-04-20T14:06:27.612Z,100.00
2023-04-20T14:08:54.490Z,100.00
2023-04-20T14:11:21.517Z,100.00
2023-04-20T14:13:48.537Z,100.00
2023-04-20T14:16:15.476Z,100.00
2023-04-20T14:18:42.643Z,100.00
2023-04-20T14:21:09.483Z,100.00
2023-04-20T14:23:36.437Z,100.00
2023-04-20T14:26:03.979Z,100.00
2023-04-20T14:28:33.187Z,100.00
2023-04-20T14:31:02.287Z,100.00
2023-04-20T14:33:29.193Z,100.00
2023-04-20T14:35:56.040Z,100.00
2023-04-20T14:38:24.687Z,100.00
2023-04-20T14:40:52.469Z,100.00
2023-04-20T14:43:19.354Z,100.00
2023-04-20T14:45:46.810Z,100.00
2023-04-20T14:48:13.647Z,100.00
2023-04-20T14:50:40.537Z,100.00
2023-04-20T14:53:07.359Z,100.00
2023-04-20T14:55:34.182Z,100.00
2023-04-20T14:58:01.034Z,100.00
2023-04-20T15:00:28.396Z,100.00
2023-04-20T15:02:56.835Z,100.00
2023-04-20T15:05:26.682Z,100.00
2023-04-20T15:07:53.692Z,100.00
2023-04-20T15:10:21.365Z,100.00
2023-04-20T15:12:48.915Z,100.00
2023-04-20T15:15:16.795Z,100.00
2023-04-20T15:17:45.241Z,100.00
2023-04-20T15:20:12.401Z,100.00
2023-04-20T15:22:39.231Z,100.00
2023-04-20T15:25:06.727Z,100.00
2023-04-20T15:27:35.928Z,100.00
2023-04-20T15:30:03.944Z,100.00
2023-04-20T15:32:30.832Z,100.00
2023-04-20T15:34:57.650Z,100.00
2023-04-20T15:37:24.489Z,100.00
2023-04-20T15:39:52.444Z,100.00
2023-04-20T15:42:19.506Z,100.00
2023-04-20T15:44:46.418Z,100.00
2023-04-20T15:47:13.309Z,100.00
2023-04-20T15:49:40.705Z,100.00
2023-04-20T15:52:11.123Z,100.00
2023-04-20T15:54:38.596Z,100.00
2023-04-20T15:57:05.428Z,100.00
2023-04-20T15:59:32.455Z,100.00
2023-04-20T16:01:59.379Z,100.00
2023-04-20T16:04:26.915Z,100.00
2023-04-20T16:06:53.938Z,100.00
2023-04-20T16:09:23.002Z,100.00
2023-04-20T16:11:50.582Z,100.00
2023-04-20T16:14:17.710Z,100.00
2023-04-20T16:16:44.882Z,100.00
2023-04-20T16:19:13.354Z,100.00
2023-04-20T16:21:40.459Z,100.00
2023-04-20T16:24:07.507Z,100.00
2023-04-20T16:26:34.351Z,100.00
2023-04-20T16:29:01.197Z,100.00
2023-04-20T16:31:29.516Z,100.00
2023-04-20T16:33:57.215Z,100.00
2023-04-20T16:36:24.407Z,100.00
2023-04-20T16:38:51.231Z,100.00
2023-04-20T16:41:18.123Z,100.00
2023-04-20T16:43:45.321Z,100.00
2023-04-20T16:46:13.761Z,100.00
2023-04-20T16:48:40.569Z,100.00
2023-04-20T16:51:07.414Z,100.00
2023-04-20T16:53:34.858Z,100.00
2023-04-20T16:56:02.434Z,100.00
2023-04-20T16:58:29.288Z,100.00
2023-04-20T17:00:56.217Z,100.00
2023-04-20T17:03:23.343Z,100.00
2023-04-20T17:05:50.422Z,100.00
2023-04-20T17:08:17.584Z,100.00
2023-04-20T17:10:44.451Z,100.00
2023-04-20T17:13:11.370Z,100.00
2023-04-20T17:15:40.018Z,100.00
2023-04-20T17:18:07.520Z,100.00
2023-04-20T17:20:34.487Z,100.00
2023-04-20T17:23:01.266Z,100.00
2023-04-20T17:25:28.051Z,100.00
2023-04-20T17:27:54.826Z,100.00
2023-04-20T17:30:21.730Z,100.00
2023-04-20T17:32:48.656Z,100.00
2023-04-20T17:35:15.699Z,100.00
2023-04-20T17:37:42.677Z,100.00
2023-04-20T17:40:09.940Z,100.00
2023-04-20T17:42:36.853Z,100.00
2023-04-20T17:45:05.809Z,100.00
2023-04-20T17:47:32.865Z,100.00
2023-04-20T17:49:59.892Z,100.00
2023-04-20T17:52:27.229Z,100.00
2023-04-20T17:54:54.592Z,100.00
2023-04-20T17:57:21.422Z,100.00
2023-04-20T17:59:48.339Z,100.00
2023-04-20T18:02:16.050Z,100.00
2023-04-20T18:04:43.225Z,100.00
2023-04-20T18:07:13.126Z,100.00
2023-04-20T18:09:40.199Z,100.00
2023-04-20T18:12:08.605Z,100.00
2023-04-20T18:14:35.457Z,100.00
2023-04-20T18:17:02.374Z,100.00
2023-04-20T18:19:29.393Z,100.00
2023-04-20T18:21:56.315Z,100.00
2023-04-20T18:24:23.154Z,100.00
2023-04-20T18:26:50.058Z,100.00
2023-04-20T18:29:17.104Z,100.00
2023-04-20T18:31:47.158Z,100.00
2023-04-20T18:34:15.652Z,100.00
2023-04-20T18:36:42.708Z,100.00
2023-04-20T18:39:09.689Z,100.00
2023-04-20T18:41:37.233Z,100.00
2023-04-20T18:44:04.647Z,100.00
2023-04-20T18:46:31.595Z,100.00
2023-04-20T18:48:58.408Z,100.00
2023-04-20T18:51:26.229Z,100.00
2023-04-20T18:53:53.120Z,100.00
2023-04-20T18:56:19.964Z,100.00
2023-04-20T18:58:46.793Z,100.00
2023-04-20T19:01:13.744Z,100.00
2023-04-20T19:03:40.673Z,100.00
2023-04-20T19:06:07.545Z,100.00
2023-04-20T19:08:34.428Z,100.00
2023-04-20T19:11:01.383Z,100.00
2023-04-20T19:13:28.408Z,100.00
2023-04-20T19:15:57.693Z,100.00
2023-04-20T19:18:26.913Z,100.00
2023-04-20T19:20:54.779Z,100.00
2023-04-20T19:23:22.078Z,100.00
2023-04-20T19:25:49.003Z,100.00
2023-04-20T19:28:15.875Z,100.00
2023-04-20T19:30:42.752Z,100.00
2023-04-20T19:33:09.718Z,100.00
2023-04-20T19:35:36.682Z,100.00
2023-04-20T19:38:03.535Z,100.00
2023-04-20T19:40:30.500Z,100.00
2023-04-20T19:42:57.292Z,100.00
2023-04-20T19:45:24.222Z,100.00
2023-04-20T19:47:51.814Z,100.00
2023-04-20T19:50:18.815Z,100.00
2023-04-20T19:52:45.687Z,100.00
2023-04-20T19:55:12.568Z,100.00
2023-04-20T19:57:39.403Z,100.00
2023-04-20T20:00:08.369Z,100.00
2023-04-20T20:02:35.415Z,100.00
2023-04-20T20:05:02.567Z,100.00
2023-04-20T20:07:29.380Z,100.00
2023-04-20T20:09:56.259Z,100.00
2023-04-20T20:12:23.087Z,100.00
2023-04-20T20:14:51.485Z,100.00
2023-04-20T20:17:19.468Z,100.00
2023-04-20T20:19:46.367Z,100.00
2023-04-20T20:22:13.373Z,100.00
2023-04-20T20:24:40.269Z,100.00
2023-04-20T20:27:07.128Z,100.00
2023-04-20T20:29:33.974Z,100.00
2023-04-20T20:32:00.795Z,100.00
2023-04-20T20:34:27.611Z,100.00
2023-04-20T20:36:54.470Z,100.00
2023-04-20T20:39:21.496Z,100.00
2023-04-20T20:41:51.158Z,100.00
2023-04-20T20:44:18.619Z,100.00
2023-04-20T20:46:45.946Z,100.00
2023-04-20T20:49:12.834Z,100.00
2023-04-20T20:51:39.688Z,100.00
2023-04-20T20:54:06.499Z,100.00
2023-04-20T20:56:33.327Z,100.00
2023-04-20T20:59:00.162Z,100.00
2023-04-20T21:01:27.147Z,100.00
2023-04-20T21:03:54.370Z,100.00
2023-04-20T21:06:21.413Z,100.00
2023-04-20T21:08:48.760Z,100.00
2023-04-20T21:11:15.602Z,100.00
2023-04-20T21:13:42.394Z,100.00
2023-04-20T21:16:09.309Z,100.00
2023-04-20T21:18:36.319Z,100.00
2023-04-20T21:21:03.201Z,100.00
2023-04-20T21:23:30.033Z,100.00
2023-04-20T21:25:56.919Z,100.00
2023-04-20T21:28:23.770Z,100.00
2023-04-20T21:30:50.819Z,100.00
2023-04-20T21:33:17.728Z,100.00
2023-04-20T21:35:44.617Z,100.00
2023-04-20T21:38:11.433Z,100.00
2023-04-20T21:40:38.257Z,100.00
2023-04-20T21:43:05.116Z,100.00
2023-04-20T21:45:32.039Z,100.00
2023-04-20T21:47:58.844Z,100.00
2023-04-20T21:50:27.072Z,100.00
2023-04-20T21:52:55.017Z,100.00
2023-04-20T21:55:21.934Z,100.00
2023-04-20T21:57:48.824Z,100.00
2023-04-20T22:00:16.507Z,100.00
2023-04-20T22:02:43.502Z,100.00
2023-04-20T22:05:11.469Z,100.00
2023-04-20T22:07:39.320Z,100.00
2023-04-20T22:10:07.684Z,100.00
2023-04-20T22:12:40.139Z,100.00
2023-04-20T22:15:14.734Z,100.00
2023-04-20T22:17:45.324Z,100.00
2023-04-20T22:20:14.051Z,100.00
2023-04-20T22:22:40.869Z,100.00
2023-04-20T22:25:09.021Z,100.00
2023-04-20T22:27:37.504Z,100.00
2023-04-20T22:30:06.530Z,100.00
2023-04-20T22:32:33.392Z,100.00
2023-04-20T22:35:00.454Z,100.00
2023-04-20T22:37:27.258Z,100.00
2023-04-20T22:39:54.062Z,100.00
2023-04-20T22:42:20.852Z,100.00
2023-04-20T22:44:47.711Z,100.00
2023-04-20T22:47:14.580Z,100.00
2023-04-20T22:49:41.862Z,100.00
2023-04-20T22:52:08.745Z,100.00
2023-04-20T22:54:37.524Z,100.00
2023-04-20T22:57:04.434Z,100.00
2023-04-20T22:59:31.233Z,100.00
2023-04-20T23:01:58.146Z,100.00
2023-04-20T23:04:25.016Z,100.00
2023-04-20T23:06:52.938Z,100.00
2023-04-20T23:09:20.664Z,100.00
2023-04-20T23:11:47.778Z,100.00
2023-04-20T23:14:14.665Z,100.00
2023-04-20T23:16:41.617Z,100.00
2023-04-20T23:19:08.482Z,100.00
2023-04-20T23:21:35.379Z,100.00
2023-04-20T23:24:02.379Z,100.00
2023-04-20T23:26:29.276Z,100.00
2023-04-20T23:28:56.070Z,100.00
2023-04-20T23:31:22.935Z,100.00
2023-04-20T23:33:49.993Z,100.00
2023-04-20T23:36:16.918Z,100.00
2023-04-20T23:38:43.951Z,100.00
2023-04-20T23:41:12.389Z,100.00
2023-04-20T23:43:40.470Z,100.00
2023-04-20T23:46:08.394Z,100.00
2023-04-20T23:48:35.400Z,100.00
2023-04-20T23:51:02.346Z,100.00
2023-04-20T23:53:29.179Z,100.00
2023-04-20T23:55:56.036Z,100.00
2023-04-20T23:58:28.130Z,100.00
